Zlatibor, Serbia
Current Conditions -  °F | °C
As of 8:00 PM on Thursday 18 Dec 2014 (Local Time) from LYUZ Reporting Station
Scattered Clouds Scattered Clouds  
Wind Chill: 32°   Ceiling: Unl
Heat Index: 32°   Visibility: 6mi
Dew Point: 25°   Wind: 3mph
Humidity: 75%   Direction: 280°W
Pressure: 30.12"   Gusts: NA
Location:  43.72°N, 19.7°E
Report Text: LYUZ 181800Z 28003KT 240V310 9999 SCT017 M00/M04 Q1020
Loading
Personal Weather Stations






























Interactive Weather Map New forecast layout! Learn more

10-Day Weather Forecast

Advertisements
Track Severe Weather on mobile